sensor_id;sensor_type;location;lat;lon;timestamp;pressure;altitude;pressure_sealevel;temperature;humidity
11499;BME280;5806;48.748;9.278;2023-08-07T00:00:06;100604.25;;;14.01;88.38
11499;BME280;5806;48.748;9.278;2023-08-07T00:02:35;100616.35;;;14.00;88.52
11499;BME280;5806;48.748;9.278;2023-08-07T00:05:03;100601.47;;;13.91;89.07
11499;BME280;5806;48.748;9.278;2023-08-07T00:07:30;100605.39;;;14.12;89.42
11499;BME280;5806;48.748;9.278;2023-08-07T00:09:58;100607.09;;;14.18;88.89
11499;BME280;5806;48.748;9.278;2023-08-07T00:12:27;100599.87;;;14.07;88.04
11499;BME280;5806;48.748;9.278;2023-08-07T00:14:54;100607.25;;;13.94;88.83
11499;BME280;5806;48.748;9.278;2023-08-07T00:17:22;100596.25;;;13.97;89.62
11499;BME280;5806;48.748;9.278;2023-08-07T00:19:49;100610.83;;;13.95;91.13
11499;BME280;5806;48.748;9.278;2023-08-07T00:22:17;100596.00;;;14.01;91.74
11499;BME280;5806;48.748;9.278;2023-08-07T00:24:44;100604.25;;;14.01;91.26
11499;BME280;5806;48.748;9.278;2023-08-07T00:27:12;100606.45;;;13.99;92.05
11499;BME280;5806;48.748;9.278;2023-08-07T00:29:40;100606.16;;;13.98;90.89
11499;BME280;5806;48.748;9.278;2023-08-07T00:32:08;100613.58;;;13.92;91.54
11499;BME280;5806;48.748;9.278;2023-08-07T00:34:35;100615.75;;;13.93;91.38
11499;BME280;5806;48.748;9.278;2023-08-07T00:37:03;100614.38;;;13.93;91.93
11499;BME280;5806;48.748;9.278;2023-08-07T00:39:30;100613.77;;;13.83;92.66
11499;BME280;5806;48.748;9.278;2023-08-07T00:41:57;100614.64;;;13.91;92.17
11499;BME280;5806;48.748;9.278;2023-08-07T00:44:25;100615.50;;;13.97;91.68
11499;BME280;5806;48.748;9.278;2023-08-07T00:46:52;100619.84;;;13.83;92.65
11499;BME280;5806;48.748;9.278;2023-08-07T00:49:21;100621.77;;;13.87;92.16
11499;BME280;5806;48.748;9.278;2023-08-07T00:51:49;100625.09;;;13.87;91.98
11499;BME280;5806;48.748;9.278;2023-08-07T00:54:18;100626.75;;;13.90;92.42
11499;BME280;5806;48.748;9.278;2023-08-07T00:56:46;100626.24;;;13.98;92.53
11499;BME280;5806;48.748;9.278;2023-08-07T00:59:15;100625.12;;;13.97;92.21
11499;BME280;5806;48.748;9.278;2023-08-07T01:01:43;100631.38;;;13.82;92.79
11499;BME280;5806;48.748;9.278;2023-08-07T01:04:10;100629.70;;;13.79;92.22
11499;BME280;5806;48.748;9.278;2023-08-07T01:06:37;100638.14;;;13.70;93.86
11499;BME280;5806;48.748;9.278;2023-08-07T01:09:05;100632.20;;;13.83;92.79
11499;BME280;5806;48.748;9.278;2023-08-07T01:11:44;100635.49;;;13.82;94.17
11499;BME280;5806;48.748;9.278;2023-08-07T01:17:14;100646.75;;;13.81;92.84
11499;BME280;5806;48.748;9.278;2023-08-07T01:19:41;100642.85;;;13.72;92.50
11499;BME280;5806;48.748;9.278;2023-08-07T01:22:13;100633.48;;;13.70;94.20
11499;BME280;5806;48.748;9.278;2023-08-07T01:24:43;100651.64;;;13.74;94.43
11499;BME280;5806;48.748;9.278;2023-08-07T01:27:28;100647.33;;;13.83;93.47
11499;BME280;5806;48.748;9.278;2023-08-07T01:35:23;100645.86;;;13.70;94.92
11499;BME280;5806;48.748;9.278;2023-08-07T01:37:56;100650.77;;;13.66;94.37
11499;BME280;5806;48.748;9.278;2023-08-07T01:40:27;100645.57;;;13.67;94.63
11499;BME280;5806;48.748;9.278;2023-08-07T01:42:55;100649.45;;;13.71;94.69
11499;BME280;5806;48.748;9.278;2023-08-07T01:45:27;100654.95;;;13.73;94.67
11499;BME280;5806;48.748;9.278;2023-08-07T01:47:55;100648.39;;;13.79;94.16
11499;BME280;5806;48.748;9.278;2023-08-07T01:50:24;100650.56;;;13.72;94.42
11499;BME280;5806;48.748;9.278;2023-08-07T01:52:51;100651.84;;;13.62;94.73
11499;BME280;5806;48.748;9.278;2023-08-07T01:55:21;100652.45;;;13.69;94.55
11499;BME280;5806;48.748;9.278;2023-08-07T01:57:48;100660.11;;;13.65;94.46
11499;BME280;5806;48.748;9.278;2023-08-07T02:00:16;100661.03;;;13.41;95.38
11499;BME280;5806;48.748;9.278;2023-08-07T02:02:43;100665.19;;;13.46;94.52
11499;BME280;5806;48.748;9.278;2023-08-07T02:05:14;100657.60;;;13.61;95.06
11499;BME280;5806;48.748;9.278;2023-08-07T02:07:42;100650.48;;;13.65;94.46
11499;BME280;5806;48.748;9.278;2023-08-07T02:10:10;100656.99;;;13.54;95.05
11499;BME280;5806;48.748;9.278;2023-08-07T02:12:37;100651.20;;;13.50;94.98
11499;BME280;5806;48.748;9.278;2023-08-07T02:15:06;100664.23;;;13.65;94.84
11499;BME280;5806;48.748;9.278;2023-08-07T02:17:33;100676.11;;;13.73;94.50
11499;BME280;5806;48.748;9.278;2023-08-07T02:20:02;100676.88;;;13.66;94.63
11499;BME280;5806;48.748;9.278;2023-08-07T02:22:29;100683.17;;;13.61;94.69
11499;BME280;5806;48.748;9.278;2023-08-07T02:24:57;100678.25;;;13.66;94.65
11499;BME280;5806;48.748;9.278;2023-08-07T02:27:24;100680.19;;;13.65;95.06
11499;BME280;5806;48.748;9.278;2023-08-07T02:29:52;100677.45;;;13.68;94.99
11499;BME280;5806;48.748;9.278;2023-08-07T02:32:20;100681.41;;;13.48;95.10
11499;BME280;5806;48.748;9.278;2023-08-07T02:34:47;100684.16;;;13.48;95.08
11499;BME280;5806;48.748;9.278;2023-08-07T02:37:15;100688.08;;;13.57;95.80
11499;BME280;5806;48.748;9.278;2023-08-07T02:39:43;100692.18;;;13.54;95.36
11499;BME280;5806;48.748;9.278;2023-08-07T02:42:11;100693.31;;;13.58;95.74
11499;BME280;5806;48.748;9.278;2023-08-07T02:44:38;100688.45;;;13.68;95.06
11499;BME280;5806;48.748;9.278;2023-08-07T02:47:06;100691.33;;;13.51;95.52
11499;BME280;5806;48.748;9.278;2023-08-07T02:49:34;100695.45;;;13.51;96.24
11499;BME280;5806;48.748;9.278;2023-08-07T02:52:01;100689.22;;;13.63;95.45
11499;BME280;5806;48.748;9.278;2023-08-07T02:54:29;100684.53;;;13.59;95.54
11499;BME280;5806;48.748;9.278;2023-08-07T02:56:57;100682.06;;;13.60;95.48
11499;BME280;5806;48.748;9.278;2023-08-07T02:59:24;100681.66;;;13.44;95.03
11499;BME280;5806;48.748;9.278;2023-08-07T03:01:52;100675.30;;;13.41;95.24
11499;BME280;5806;48.748;9.278;2023-08-07T03:04:19;100678.66;;;13.48;95.14
11499;BME280;5806;48.748;9.278;2023-08-07T03:06:46;100678.05;;;13.41;95.45
11499;BME280;5806;48.748;9.278;2023-08-07T03:09:14;100674.51;;;13.43;95.54
11499;BME280;5806;48.748;9.278;2023-08-07T03:11:41;100681.43;;;13.50;95.05
11499;BME280;5806;48.748;9.278;2023-08-07T03:14:09;100682.56;;;13.54;95.22
11499;BME280;5806;48.748;9.278;2023-08-07T03:16:36;100677.97;;;13.31;95.12
11499;BME280;5806;48.748;9.278;2023-08-07T03:19:04;100671.86;;;13.58;95.04
11499;BME280;5806;48.748;9.278;2023-08-07T03:21:31;100680.30;;;13.46;95.09
11499;BME280;5806;48.748;9.278;2023-08-07T03:23:58;100677.30;;;13.48;94.35
11499;BME280;5806;48.748;9.278;2023-08-07T03:26:26;100678.31;;;13.39;95.75
11499;BME280;5806;48.748;9.278;2023-08-07T03:28:53;100675.03;;;13.40;95.92
11499;BME280;5806;48.748;9.278;2023-08-07T03:31:21;100669.58;;;13.47;95.20
11499;BME280;5806;48.748;9.278;2023-08-07T03:33:48;100674.80;;;13.46;95.84
11499;BME280;5806;48.748;9.278;2023-08-07T03:36:16;100674.33;;;13.23;94.57
11499;BME280;5806;48.748;9.278;2023-08-07T03:38:43;100678.61;;;13.40;95.12
11499;BME280;5806;48.748;9.278;2023-08-07T03:41:10;100678.38;;;13.44;94.28
11499;BME280;5806;48.748;9.278;2023-08-07T03:43:38;100672.69;;;13.56;94.37
11499;BME280;5806;48.748;9.278;2023-08-07T03:46:05;100679.44;;;13.43;94.18
11499;BME280;5806;48.748;9.278;2023-08-07T03:48:33;100679.62;;;13.32;94.37
11499;BME280;5806;48.748;9.278;2023-08-07T03:51:07;100681.88;;;13.37;95.80
11499;BME280;5806;48.748;9.278;2023-08-07T03:53:35;100679.59;;;13.27;94.86
11499;BME280;5806;48.748;9.278;2023-08-07T03:56:02;100686.38;;;13.48;95.11
11499;BME280;5806;48.748;9.278;2023-08-07T03:58:30;100692.44;;;13.53;94.41
11499;BME280;5806;48.748;9.278;2023-08-07T04:00:57;100685.52;;;13.45;93.84
11499;BME280;5806;48.748;9.278;2023-08-07T04:03:25;100693.27;;;13.51;93.11
11499;BME280;5806;48.748;9.278;2023-08-07T04:05:53;100690.50;;;13.48;93.79
11499;BME280;5806;48.748;9.278;2023-08-07T04:08:22;100690.02;;;13.56;93.72
11499;BME280;5806;48.748;9.278;2023-08-07T04:11:03;100695.75;;;13.52;94.28
11499;BME280;5806;48.748;9.278;2023-08-07T04:13:31;100684.59;;;13.32;93.12
11499;BME280;5806;48.748;9.278;2023-08-07T04:15:59;100690.50;;;13.48;94.44
11499;BME280;5806;48.748;9.278;2023-08-07T04:18:28;100698.14;;;13.44;94.85
11499;BME280;5806;48.748;9.278;2023-08-07T04:20:56;100697.31;;;13.46;94.98
11499;BME280;5806;48.748;9.278;2023-08-07T04:23:24;100696.78;;;13.46;94.39
11499;BME280;5806;48.748;9.278;2023-08-07T04:25:53;100710.25;;;13.45;94.05
11499;BME280;5806;48.748;9.278;2023-08-07T04:28:21;100702.31;;;13.51;93.82
11499;BME280;5806;48.748;9.278;2023-08-07T04:30:51;100698.91;;;13.39;94.77
11499;BME280;5806;48.748;9.278;2023-08-07T04:33:20;100708.41;;;13.56;94.49
11499;BME280;5806;48.748;9.278;2023-08-07T04:35:48;100703.17;;;13.54;94.06
11499;BME280;5806;48.748;9.278;2023-08-07T04:38:16;100709.30;;;13.64;93.49
11499;BME280;5806;48.748;9.278;2023-08-07T04:40:47;100705.39;;;13.55;93.65
11499;BME280;5806;48.748;9.278;2023-08-07T04:43:16;100707.73;;;13.41;94.13
11499;BME280;5806;48.748;9.278;2023-08-07T04:45:44;100707.02;;;13.53;94.24
11499;BME280;5806;48.748;9.278;2023-08-07T04:48:15;100714.41;;;13.50;94.76
11499;BME280;5806;48.748;9.278;2023-08-07T04:50:44;100708.42;;;13.27;94.23
11499;BME280;5806;48.748;9.278;2023-08-07T04:53:11;100714.33;;;13.40;93.78
11499;BME280;5806;48.748;9.278;2023-08-07T04:55:39;100710.09;;;13.30;95.44
11499;BME280;5806;48.748;9.278;2023-08-07T04:58:06;100713.61;;;13.52;94.62
11499;BME280;5806;48.748;9.278;2023-08-07T05:00:33;100717.92;;;13.46;93.99
11499;BME280;5806;48.748;9.278;2023-08-07T05:03:01;100710.48;;;13.41;94.08
11499;BME280;5806;48.748;9.278;2023-08-07T05:05:28;100718.48;;;13.45;95.15
11499;BME280;5806;48.748;9.278;2023-08-07T05:07:57;100712.70;;;13.42;94.00
11499;BME280;5806;48.748;9.278;2023-08-07T05:10:25;100719.64;;;13.52;94.45
11499;BME280;5806;48.748;9.278;2023-08-07T05:12:52;100721.69;;;13.35;93.78
11499;BME280;5806;48.748;9.278;2023-08-07T05:15:23;100718.56;;;13.55;94.28
11499;BME280;5806;48.748;9.278;2023-08-07T05:17:51;100716.03;;;13.49;93.49
11499;BME280;5806;48.748;9.278;2023-08-07T05:20:18;100721.27;;;13.50;94.19
11499;BME280;5806;48.748;9.278;2023-08-07T05:22:46;100707.76;;;13.44;94.18
11499;BME280;5806;48.748;9.278;2023-08-07T05:25:14;100718.47;;;13.43;93.81
11499;BME280;5806;48.748;9.278;2023-08-07T05:27:46;100716.73;;;13.34;93.69
11499;BME280;5806;48.748;9.278;2023-08-07T05:30:14;100716.00;;;13.44;93.38
11499;BME280;5806;48.748;9.278;2023-08-07T05:32:42;100721.29;;;13.53;94.65
11499;BME280;5806;48.748;9.278;2023-08-07T05:35:09;100721.23;;;13.45;94.00
11499;BME280;5806;48.748;9.278;2023-08-07T05:37:37;100720.96;;;13.44;93.38
11499;BME280;5806;48.748;9.278;2023-08-07T05:40:05;100725.08;;;13.44;93.66
11499;BME280;5806;48.748;9.278;2023-08-07T05:42:33;100720.78;;;13.56;93.41
11499;BME280;5806;48.748;9.278;2023-08-07T05:45:01;100727.54;;;13.46;92.75
11499;BME280;5806;48.748;9.278;2023-08-07T05:47:30;100733.33;;;13.44;94.03
11499;BME280;5806;48.748;9.278;2023-08-07T05:49:57;100733.62;;;13.48;93.26
11499;BME280;5806;48.748;9.278;2023-08-07T05:52:24;100728.63;;;13.42;93.58
11499;BME280;5806;48.748;9.278;2023-08-07T05:54:52;100729.93;;;13.35;91.82
11499;BME280;5806;48.748;9.278;2023-08-07T05:57:19;100744.80;;;13.39;92.00
11499;BME280;5806;48.748;9.278;2023-08-07T05:59:47;100746.59;;;13.52;92.74
11499;BME280;5806;48.748;9.278;2023-08-07T06:02:14;100739.09;;;13.45;91.66
11499;BME280;5806;48.748;9.278;2023-08-07T06:04:42;100742.63;;;13.43;90.80
11499;BME280;5806;48.748;9.278;2023-08-07T06:07:09;100733.64;;;13.50;92.77
11499;BME280;5806;48.748;9.278;2023-08-07T06:09:36;100736.78;;;13.32;93.73
11499;BME280;5806;48.748;9.278;2023-08-07T06:12:04;100736.34;;;13.45;93.42
11499;BME280;5806;48.748;9.278;2023-08-07T06:14:31;100738.84;;;13.47;93.05
11499;BME280;5806;48.748;9.278;2023-08-07T06:16:59;100735.66;;;13.31;93.04
11499;BME280;5806;48.748;9.278;2023-08-07T06:19:28;100740.34;;;13.33;93.27
11499;BME280;5806;48.748;9.278;2023-08-07T06:21:55;100743.17;;;13.40;92.20
11499;BME280;5806;48.748;9.278;2023-08-07T06:24:22;100739.38;;;13.46;92.58
11499;BME280;5806;48.748;9.278;2023-08-07T06:26:51;100746.48;;;13.42;92.96
11499;BME280;5806;48.748;9.278;2023-08-07T06:29:18;100755.75;;;13.34;92.66
11499;BME280;5806;48.748;9.278;2023-08-07T06:31:46;100755.47;;;13.35;94.12
11499;BME280;5806;48.748;9.278;2023-08-07T06:34:13;100752.35;;;13.24;93.33
11499;BME280;5806;48.748;9.278;2023-08-07T06:36:41;100758.81;;;13.13;93.92
11499;BME280;5806;48.748;9.278;2023-08-07T06:39:08;100759.14;;;13.19;94.30
11499;BME280;5806;48.748;9.278;2023-08-07T06:41:37;100751.13;;;13.15;94.48
11499;BME280;5806;48.748;9.278;2023-08-07T06:44:05;100769.06;;;13.20;94.56
11499;BME280;5806;48.748;9.278;2023-08-07T06:46:32;100766.16;;;13.08;93.82
11499;BME280;5806;48.748;9.278;2023-08-07T06:49:00;100765.42;;;13.15;93.85
11499;BME280;5806;48.748;9.278;2023-08-07T06:51:27;100769.83;;;13.16;93.44
11499;BME280;5806;48.748;9.278;2023-08-07T06:53:55;100771.20;;;13.42;93.44
11499;BME280;5806;48.748;9.278;2023-08-07T06:56:22;100773.91;;;13.37;93.91
11499;BME280;5806;48.748;9.278;2023-08-07T06:58:50;100773.19;;;13.20;93.70
11499;BME280;5806;48.748;9.278;2023-08-07T07:01:17;100777.53;;;13.16;94.28
11499;BME280;5806;48.748;9.278;2023-08-07T07:03:44;100783.83;;;13.17;94.26
11499;BME280;5806;48.748;9.278;2023-08-07T07:06:13;100775.67;;;13.22;93.45
11499;BME280;5806;48.748;9.278;2023-08-07T07:08:40;100780.84;;;13.18;94.64
11499;BME280;5806;48.748;9.278;2023-08-07T07:11:08;100787.27;;;13.29;94.93
11499;BME280;5806;48.748;9.278;2023-08-07T07:13:35;100796.63;;;13.30;95.46
11499;BME280;5806;48.748;9.278;2023-08-07T07:16:03;100794.59;;;13.21;94.67
11499;BME280;5806;48.748;9.278;2023-08-07T07:18:30;100792.38;;;13.18;95.06
11499;BME280;5806;48.748;9.278;2023-08-07T07:20:58;100796.53;;;13.20;95.77
11499;BME280;5806;48.748;9.278;2023-08-07T07:23:27;100806.98;;;13.23;96.11
11499;BME280;5806;48.748;9.278;2023-08-07T07:25:55;100800.98;;;13.26;95.60
11499;BME280;5806;48.748;9.278;2023-08-07T07:28:23;100811.02;;;13.16;95.93
11499;BME280;5806;48.748;9.278;2023-08-07T07:30:51;100814.18;;;13.27;97.10
11499;BME280;5806;48.748;9.278;2023-08-07T07:33:18;100813.84;;;13.23;96.31
11499;BME280;5806;48.748;9.278;2023-08-07T07:35:46;100826.03;;;13.30;96.51
11499;BME280;5806;48.748;9.278;2023-08-07T07:38:13;100821.55;;;13.24;95.95
11499;BME280;5806;48.748;9.278;2023-08-07T07:40:41;100820.17;;;13.24;95.92
11499;BME280;5806;48.748;9.278;2023-08-07T07:43:09;100822.28;;;13.17;96.34
11499;BME280;5806;48.748;9.278;2023-08-07T07:45:36;100821.70;;;13.36;96.59
11499;BME280;5806;48.748;9.278;2023-08-07T07:48:04;100823.08;;;13.36;96.60
11499;BME280;5806;48.748;9.278;2023-08-07T07:50:33;100831.83;;;13.33;95.77
11499;BME280;5806;48.748;9.278;2023-08-07T07:53:01;100846.89;;;13.28;97.08
11499;BME280;5806;48.748;9.278;2023-08-07T07:55:28;100853.27;;;13.34;95.83
11499;BME280;5806;48.748;9.278;2023-08-07T07:57:55;100844.56;;;13.18;96.17
11499;BME280;5806;48.748;9.278;2023-08-07T08:00:23;100850.55;;;13.36;96.32
11499;BME280;5806;48.748;9.278;2023-08-07T08:02:52;100830.05;;;13.46;96.49
11499;BME280;5806;48.748;9.278;2023-08-07T08:05:20;100836.59;;;13.40;95.86
11499;BME280;5806;48.748;9.278;2023-08-07T08:07:47;100855.84;;;13.43;97.01
11499;BME280;5806;48.748;9.278;2023-08-07T08:10:15;100855.62;;;13.47;96.31
11499;BME280;5806;48.748;9.278;2023-08-07T08:12:42;100856.77;;;13.51;95.62
11499;BME280;5806;48.748;9.278;2023-08-07T08:15:10;100858.34;;;13.44;95.25
11499;BME280;5806;48.748;9.278;2023-08-07T08:17:37;100869.25;;;13.39;95.22
11499;BME280;5806;48.748;9.278;2023-08-07T08:20:06;100861.67;;;13.49;95.13
11499;BME280;5806;48.748;9.278;2023-08-07T08:22:34;100864.80;;;13.57;95.07
11499;BME280;5806;48.748;9.278;2023-08-07T08:25:01;100874.47;;;13.62;95.05
11499;BME280;5806;48.748;9.278;2023-08-07T08:27:30;100890.32;;;13.55;94.21
11499;BME280;5806;48.748;9.278;2023-08-07T08:29:58;100878.41;;;13.47;94.79
11499;BME280;5806;48.748;9.278;2023-08-07T08:32:25;100884.04;;;13.57;94.65
11499;BME280;5806;48.748;9.278;2023-08-07T08:34:53;100894.64;;;13.49;94.90
11499;BME280;5806;48.748;9.278;2023-08-07T08:37:20;100891.72;;;13.58;95.96
11499;BME280;5806;48.748;9.278;2023-08-07T08:39:48;100901.52;;;13.49;95.58
11499;BME280;5806;48.748;9.278;2023-08-07T08:42:16;100906.20;;;13.48;95.26
11499;BME280;5806;48.748;9.278;2023-08-07T08:44:54;100905.69;;;13.54;96.28
11499;BME280;5806;48.748;9.278;2023-08-07T08:47:24;100918.41;;;13.60;95.83
11499;BME280;5806;48.748;9.278;2023-08-07T08:50:03;100921.22;;;13.65;95.26
11499;BME280;5806;48.748;9.278;2023-08-07T08:52:32;100920.66;;;13.63;95.48
11499;BME280;5806;48.748;9.278;2023-08-07T08:54:59;100921.55;;;13.68;95.37
11499;BME280;5806;48.748;9.278;2023-08-07T08:57:29;100924.58;;;13.69;97.06
11499;BME280;5806;48.748;9.278;2023-08-07T08:59:57;100928.95;;;13.68;95.94
11499;BME280;5806;48.748;9.278;2023-08-07T09:02:25;100928.70;;;13.69;96.27
11499;BME280;5806;48.748;9.278;2023-08-07T09:04:52;100933.72;;;13.75;97.29
11499;BME280;5806;48.748;9.278;2023-08-07T09:07:20;100935.70;;;13.82;95.67
11499;BME280;5806;48.748;9.278;2023-08-07T09:09:49;100935.14;;;13.80;96.07
11499;BME280;5806;48.748;9.278;2023-08-07T09:12:23;100941.81;;;13.86;96.25
11499;BME280;5806;48.748;9.278;2023-08-07T09:14:56;100941.73;;;13.79;96.48
11499;BME280;5806;48.748;9.278;2023-08-07T09:17:28;100945.89;;;13.81;98.19
11499;BME280;5806;48.748;9.278;2023-08-07T09:19:56;100946.70;;;13.82;99.00
11499;BME280;5806;48.748;9.278;2023-08-07T09:22:24;100944.84;;;13.87;97.41
11499;BME280;5806;48.748;9.278;2023-08-07T09:24:51;100946.75;;;13.84;99.16
11499;BME280;5806;48.748;9.278;2023-08-07T09:27:19;100952.17;;;13.79;100.00
11499;BME280;5806;48.748;9.278;2023-08-07T09:29:47;100954.16;;;13.84;99.86
11499;BME280;5806;48.748;9.278;2023-08-07T09:32:15;100955.94;;;13.71;99.10
11499;BME280;5806;48.748;9.278;2023-08-07T09:34:44;100964.97;;;13.69;100.00
11499;BME280;5806;48.748;9.278;2023-08-07T09:37:12;100968.89;;;13.75;100.00
11499;BME280;5806;48.748;9.278;2023-08-07T09:39:41;100976.24;;;13.70;100.00
11499;BME280;5806;48.748;9.278;2023-08-07T09:42:15;100966.70;;;13.75;100.00
11499;BME280;5806;48.748;9.278;2023-08-07T09:44:44;100964.99;;;13.71;99.64
11499;BME280;5806;48.748;9.278;2023-08-07T09:47:17;100969.51;;;13.80;98.66
11499;BME280;5806;48.748;9.278;2023-08-07T09:49:46;100967.38;;;13.84;99.17
11499;BME280;5806;48.748;9.278;2023-08-07T09:52:14;100980.20;;;14.00;99.30
11499;BME280;5806;48.748;9.278;2023-08-07T09:54:45;100983.33;;;14.11;98.66
11499;BME280;5806;48.748;9.278;2023-08-07T09:57:14;100981.88;;;14.25;95.97
11499;BME280;5806;48.748;9.278;2023-08-07T09:59:41;100982.78;;;14.33;96.17
11499;BME280;5806;48.748;9.278;2023-08-07T10:02:09;100983.56;;;14.31;97.04
11499;BME280;5806;48.748;9.278;2023-08-07T10:04:38;100983.11;;;14.42;97.00
11499;BME280;5806;48.748;9.278;2023-08-07T10:07:07;100989.40;;;14.35;95.41
11499;BME280;5806;48.748;9.278;2023-08-07T10:09:34;100988.54;;;14.32;96.35
11499;BME280;5806;48.748;9.278;2023-08-07T10:12:02;100994.69;;;14.41;96.53
11499;BME280;5806;48.748;9.278;2023-08-07T10:14:30;101001.33;;;14.45;95.09
11499;BME280;5806;48.748;9.278;2023-08-07T10:16:58;101001.99;;;14.57;93.53
11499;BME280;5806;48.748;9.278;2023-08-07T10:19:26;100991.56;;;14.62;92.72
11499;BME280;5806;48.748;9.278;2023-08-07T10:21:54;100992.93;;;14.62;96.43
11499;BME280;5806;48.748;9.278;2023-08-07T10:24:22;100991.94;;;14.73;93.66
11499;BME280;5806;48.748;9.278;2023-08-07T10:26:51;100989.78;;;14.78;94.85
11499;BME280;5806;48.748;9.278;2023-08-07T10:29:21;100991.67;;;14.74;95.28
11499;BME280;5806;48.748;9.278;2023-08-07T10:31:50;100993.73;;;14.92;94.95
11499;BME280;5806;48.748;9.278;2023-08-07T10:34:19;101003.86;;;14.83;96.30
11499;BME280;5806;48.748;9.278;2023-08-07T10:36:47;100999.34;;;15.04;94.46
11499;BME280;5806;48.748;9.278;2023-08-07T10:39:15;101004.29;;;15.05;92.56
11499;BME280;5806;48.748;9.278;2023-08-07T10:41:45;101003.55;;;15.17;91.53
11499;BME280;5806;48.748;9.278;2023-08-07T10:44:24;100999.73;;;15.20;90.29
11499;BME280;5806;48.748;9.278;2023-08-07T10:46:56;101004.14;;;15.21;87.32
11499;BME280;5806;48.748;9.278;2023-08-07T10:49:38;100994.28;;;15.33;86.32
11499;BME280;5806;48.748;9.278;2023-08-07T10:52:11;100993.60;;;15.11;93.43
11499;BME280;5806;48.748;9.278;2023-08-07T10:54:45;100993.70;;;15.26;89.29
11499;BME280;5806;48.748;9.278;2023-08-07T10:57:14;100996.48;;;15.31;92.13
11499;BME280;5806;48.748;9.278;2023-08-07T11:02:30;100991.48;;;15.69;81.68
11499;BME280;5806;48.748;9.278;2023-08-07T11:04:56;100989.84;;;15.73;86.09
11499;BME280;5806;48.748;9.278;2023-08-07T11:07:27;100991.03;;;15.97;85.07
11499;BME280;5806;48.748;9.278;2023-08-07T11:09:57;100996.03;;;16.13;77.06
11499;BME280;5806;48.748;9.278;2023-08-07T11:12:28;101005.16;;;16.11;78.02
11499;BME280;5806;48.748;9.278;2023-08-07T11:14:56;100991.13;;;16.35;75.85
11499;BME280;5806;48.748;9.278;2023-08-07T11:17:28;100994.70;;;16.33;75.65
11499;BME280;5806;48.748;9.278;2023-08-07T11:19:56;100994.97;;;16.24;73.66
11499;BME280;5806;48.748;9.278;2023-08-07T11:22:24;101005.75;;;16.35;72.05
11499;BME280;5806;48.748;9.278;2023-08-07T11:24:51;100996.39;;;16.39;71.43
11499;BME280;5806;48.748;9.278;2023-08-07T11:27:21;101004.91;;;16.32;74.94
11499;BME280;5806;48.748;9.278;2023-08-07T11:29:49;101002.41;;;16.26;73.81
11499;BME280;5806;48.748;9.278;2023-08-07T11:32:18;100992.84;;;16.58;71.42
11499;BME280;5806;48.748;9.278;2023-08-07T11:34:51;101016.87;;;16.75;73.77
11499;BME280;5806;48.748;9.278;2023-08-07T11:37:19;101004.16;;;16.62;71.31
11499;BME280;5806;48.748;9.278;2023-08-07T11:39:47;100994.77;;;16.83;65.65
11499;BME280;5806;48.748;9.278;2023-08-07T11:42:15;100994.21;;;17.03;63.83
11499;BME280;5806;48.748;9.278;2023-08-07T11:44:42;100993.37;;;17.00;65.28
11499;BME280;5806;48.748;9.278;2023-08-07T11:47:10;100990.91;;;16.86;65.11
11499;BME280;5806;48.748;9.278;2023-08-07T11:49:38;100987.05;;;16.65;67.33
11499;BME280;5806;48.748;9.278;2023-08-07T11:52:06;101007.73;;;16.45;65.76
11499;BME280;5806;48.748;9.278;2023-08-07T11:54:33;101001.91;;;16.39;67.96
11499;BME280;5806;48.748;9.278;2023-08-07T11:57:01;101004.99;;;16.65;65.99
11499;BME280;5806;48.748;9.278;2023-08-07T11:59:28;101002.78;;;16.84;65.29
11499;BME280;5806;48.748;9.278;2023-08-07T12:01:56;101001.39;;;16.62;66.23
11499;BME280;5806;48.748;9.278;2023-08-07T12:04:23;101000.56;;;16.51;63.59
11499;BME280;5806;48.748;9.278;2023-08-07T12:06:55;101002.23;;;16.55;66.50
11499;BME280;5806;48.748;9.278;2023-08-07T12:09:22;100992.00;;;16.50;65.08
11499;BME280;5806;48.748;9.278;2023-08-07T12:11:55;100996.16;;;16.78;64.36
11499;BME280;5806;48.748;9.278;2023-08-07T12:14:21;100992.54;;;17.10;61.52
11499;BME280;5806;48.748;9.278;2023-08-07T12:16:48;100984.52;;;17.21;61.12
11499;BME280;5806;48.748;9.278;2023-08-07T12:19:16;100986.13;;;17.37;63.44
11499;BME280;5806;48.748;9.278;2023-08-07T12:21:45;100986.38;;;17.55;58.53
11499;BME280;5806;48.748;9.278;2023-08-07T12:24:13;100995.28;;;17.42;61.42
11499;BME280;5806;48.748;9.278;2023-08-07T12:26:40;100990.86;;;17.44;57.58
11499;BME280;5806;48.748;9.278;2023-08-07T12:29:08;100986.95;;;17.37;58.50
11499;BME280;5806;48.748;9.278;2023-08-07T12:31:35;100993.58;;;17.54;58.01
11499;BME280;5806;48.748;9.278;2023-08-07T12:34:03;100983.08;;;17.56;59.84
11499;BME280;5806;48.748;9.278;2023-08-07T12:36:30;100987.22;;;17.58;57.82
11499;BME280;5806;48.748;9.278;2023-08-07T12:38:58;100990.45;;;17.78;55.05
11499;BME280;5806;48.748;9.278;2023-08-07T12:41:27;100995.97;;;17.80;53.21
11499;BME280;5806;48.748;9.278;2023-08-07T12:43:54;100991.84;;;17.75;51.83
11499;BME280;5806;48.748;9.278;2023-08-07T12:46:22;100993.97;;;17.93;50.93
11499;BME280;5806;48.748;9.278;2023-08-07T12:48:49;100995.66;;;17.92;50.86
11499;BME280;5806;48.748;9.278;2023-08-07T12:51:17;100987.13;;;17.73;53.83
11499;BME280;5806;48.748;9.278;2023-08-07T12:53:44;100988.53;;;17.76;52.64
11499;BME280;5806;48.748;9.278;2023-08-07T12:56:13;100992.07;;;17.89;61.74
11499;BME280;5806;48.748;9.278;2023-08-07T12:58:41;100983.53;;;17.78;56.73
11499;BME280;5806;48.748;9.278;2023-08-07T13:01:09;100979.92;;;17.77;60.52
11499;BME280;5806;48.748;9.278;2023-08-07T13:03:36;100992.66;;;17.81;64.17
11499;BME280;5806;48.748;9.278;2023-08-07T13:06:04;100985.46;;;17.82;59.03
11499;BME280;5806;48.748;9.278;2023-08-07T13:08:33;100991.08;;;18.16;54.03
11499;BME280;5806;48.748;9.278;2023-08-07T13:11:01;100988.14;;;18.48;56.78
11499;BME280;5806;48.748;9.278;2023-08-07T13:13:29;100989.44;;;18.58;52.54
11499;BME280;5806;48.748;9.278;2023-08-07T13:15:57;100987.00;;;18.54;54.13